createdAt,value
2023-11-30T00:01:35.822Z,99903.22
2023-11-30T00:04:38.459Z,99897.53
2023-11-30T00:07:41.360Z,99895.06
2023-11-30T00:10:44.043Z,99902.22
2023-11-30T00:13:46.694Z,99902.94
2023-11-30T00:16:49.368Z,99911.91
2023-11-30T00:19:52.053Z,99910.38
2023-11-30T00:22:54.735Z,99921.03
2023-11-30T00:25:57.329Z,99907.81
2023-11-30T00:29:00.250Z,99919.84
2023-11-30T00:32:02.876Z,99910.16
2023-11-30T00:35:06.074Z,99910.25
2023-11-30T00:38:08.792Z,99907.81
2023-11-30T00:41:18.072Z,99908.22
2023-11-30T00:44:22.615Z,99903.53
2023-11-30T00:47:25.397Z,99894.88
2023-11-30T00:50:28.154Z,99892.75
2023-11-30T00:53:31.364Z,99899.88
2023-11-30T00:56:34.020Z,99894.19
2023-11-30T00:59:36.623Z,99902.63
2023-11-30T01:02:39.934Z,99903.25
2023-11-30T01:05:43.240Z,99907.41
2023-11-30T01:08:45.880Z,99899.56
2023-11-30T01:11:48.554Z,99899.47
2023-11-30T01:14:51.474Z,99901.41
2023-11-30T01:17:54.286Z,99895.00
2023-11-30T01:20:57.956Z,99900.41
2023-11-30T01:24:00.744Z,99899.88
2023-11-30T01:27:03.642Z,99884.72
2023-11-30T01:30:06.835Z,99889.69
2023-11-30T01:33:09.604Z,99877.78
2023-11-30T01:36:12.421Z,99878.91
2023-11-30T01:39:16.875Z,99862.84
2023-11-30T01:42:19.605Z,99857.44
2023-11-30T01:45:22.343Z,99860.69
2023-11-30T01:48:25.271Z,99857.97
2023-11-30T01:51:28.478Z,99866.00
2023-11-30T01:54:31.577Z,99861.50
2023-11-30T01:57:34.371Z,99856.41
2023-11-30T02:00:38.081Z,99851.94
2023-11-30T02:03:41.432Z,99858.25
2023-11-30T02:06:47.716Z,99856.00
2023-11-30T02:09:50.447Z,99858.25
2023-11-30T02:12:53.118Z,99857.94
2023-11-30T02:15:55.745Z,99856.88
2023-11-30T02:18:58.900Z,99854.28
2023-11-30T02:22:01.595Z,99848.47
2023-11-30T02:25:04.532Z,99848.88
2023-11-30T02:28:07.229Z,99855.00
2023-11-30T02:31:10.017Z,99846.97
2023-11-30T02:34:12.639Z,99843.69
2023-11-30T02:37:15.319Z,99840.72
2023-11-30T02:40:17.960Z,99833.03
2023-11-30T02:43:20.662Z,99826.72
2023-11-30T02:46:23.451Z,99830.22
2023-11-30T02:49:26.098Z,99828.81
2023-11-30T02:52:28.725Z,99824.97
2023-11-30T02:55:31.356Z,99821.53
2023-11-30T02:58:33.966Z,99820.97
2023-11-30T03:01:46.855Z,99817.31
2023-11-30T03:04:49.557Z,99807.56
2023-11-30T03:07:53.133Z,99797.97
2023-11-30T03:10:55.793Z,99792.63
2023-11-30T03:13:58.448Z,99776.72
2023-11-30T03:17:01.225Z,99774.19
2023-11-30T03:20:04.003Z,99771.03
2023-11-30T03:23:06.659Z,99775.69
2023-11-30T03:26:09.294Z,99763.50
2023-11-30T03:29:12.219Z,99759.88
2023-11-30T03:32:15.296Z,99765.34
2023-11-30T03:35:17.942Z,99743.69
2023-11-30T03:38:20.668Z,99735.34
2023-11-30T03:41:24.860Z,99732.38
2023-11-30T03:44:27.618Z,99741.06
2023-11-30T03:47:30.291Z,99741.28
2023-11-30T03:50:33.009Z,99740.94
2023-11-30T03:53:35.821Z,99729.25
2023-11-30T03:56:38.588Z,99714.63
2023-11-30T03:59:41.248Z,99715.56
2023-11-30T04:02:44.048Z,99709.28
2023-11-30T04:05:46.734Z,99726.00
2023-11-30T04:08:52.659Z,99724.25
2023-11-30T04:11:55.626Z,99706.72
2023-11-30T04:14:58.344Z,99703.25
2023-11-30T04:18:01.409Z,99687.13
2023-11-30T04:21:06.909Z,99693.97
2023-11-30T04:24:09.774Z,99694.78
2023-11-30T04:27:13.267Z,99686.81
2023-11-30T04:30:16.116Z,99680.53
2023-11-30T04:33:19.135Z,99688.88
2023-11-30T04:36:21.846Z,99678.66
2023-11-30T04:39:25.371Z,99666.00
2023-11-30T04:42:29.353Z,99670.75
2023-11-30T04:45:32.479Z,99662.50
2023-11-30T04:48:35.186Z,99669.72
2023-11-30T04:51:38.484Z,99644.97
2023-11-30T04:54:41.275Z,99633.69
2023-11-30T04:57:43.978Z,99623.75
2023-11-30T05:00:46.659Z,99630.78
2023-11-30T05:03:49.450Z,99627.22
2023-11-30T05:06:52.199Z,99632.47
2023-11-30T05:09:55.031Z,99635.81
2023-11-30T05:12:57.731Z,99634.06
2023-11-30T05:16:01.151Z,99626.03
2023-11-30T05:19:03.785Z,99626.16
2023-11-30T05:22:06.401Z,99622.44
2023-11-30T05:25:09.231Z,99613.41
2023-11-30T05:28:11.934Z,99615.50
2023-11-30T05:31:14.835Z,99599.03
2023-11-30T05:34:17.645Z,99603.59
2023-11-30T05:37:20.411Z,99598.97
2023-11-30T05:40:23.030Z,99598.50
2023-11-30T05:43:25.738Z,99599.19
2023-11-30T05:46:28.357Z,99587.19
2023-11-30T05:49:30.967Z,99593.81
2023-11-30T05:52:33.655Z,99591.50
2023-11-30T05:55:37.023Z,99580.03
2023-11-30T05:58:39.826Z,99578.41
2023-11-30T06:01:42.514Z,99569.13
2023-11-30T06:04:53.116Z,99544.41
2023-11-30T06:07:55.937Z,99565.03
2023-11-30T06:10:58.612Z,99568.38
2023-11-30T06:14:02.004Z,99564.34
2023-11-30T06:17:05.173Z,99560.75
2023-11-30T06:20:11.792Z,99564.13
2023-11-30T06:23:14.685Z,99569.91
2023-11-30T06:26:17.360Z,99560.72
2023-11-30T06:29:20.317Z,99569.56
2023-11-30T06:32:23.628Z,99567.53
2023-11-30T06:35:27.228Z,99572.19
2023-11-30T06:38:31.054Z,99574.44
2023-11-30T06:41:33.726Z,99576.06
2023-11-30T06:44:36.497Z,99581.03
2023-11-30T06:47:39.627Z,99574.09
2023-11-30T06:50:42.321Z,99583.34
2023-11-30T06:53:46.512Z,99587.69
2023-11-30T06:56:49.982Z,99600.88
2023-11-30T06:59:54.203Z,99616.22
2023-11-30T07:02:57.033Z,99622.59
2023-11-30T07:06:02.861Z,99618.97
2023-11-30T07:09:07.123Z,99609.53
2023-11-30T07:12:12.924Z,99581.41
2023-11-30T07:15:17.339Z,99565.56
2023-11-30T07:18:21.244Z,99550.63
2023-11-30T07:21:24.138Z,99564.41
2023-11-30T07:24:26.894Z,99546.16
2023-11-30T07:27:29.680Z,99560.13
2023-11-30T07:30:32.447Z,99553.53
2023-11-30T07:33:40.974Z,99536.50
2023-11-30T07:36:43.853Z,99532.06
2023-11-30T07:39:46.830Z,99555.16
2023-11-30T07:42:57.465Z,99557.81
2023-11-30T07:46:01.059Z,99512.94
2023-11-30T07:49:05.718Z,99518.41
2023-11-30T07:52:08.753Z,99535.56
2023-11-30T07:55:14.864Z,99549.69
2023-11-30T07:58:19.026Z,99561.44
2023-11-30T08:01:21.767Z,99558.19
2023-11-30T08:04:24.657Z,99559.06
2023-11-30T08:07:27.874Z,99557.38
2023-11-30T08:10:30.580Z,99558.81
2023-11-30T08:13:34.653Z,99553.09
2023-11-30T08:16:39.895Z,99551.47
2023-11-30T08:19:44.446Z,99558.38
2023-11-30T08:22:47.102Z,99547.56
2023-11-30T08:25:49.847Z,99567.50
2023-11-30T08:28:52.562Z,99565.78
2023-11-30T08:31:55.236Z,99561.66
2023-11-30T08:34:57.906Z,99566.56
2023-11-30T08:38:00.578Z,99568.44
2023-11-30T08:41:04.473Z,99573.00
2023-11-30T08:44:07.225Z,99554.69
2023-11-30T08:47:09.923Z,99565.88
2023-11-30T08:50:13.299Z,99581.09
2023-11-30T08:53:17.269Z,99551.06
2023-11-30T08:56:20.269Z,99539.63
2023-11-30T08:59:22.940Z,99556.88
2023-11-30T09:02:25.961Z,99558.47
2023-11-30T09:05:28.749Z,99556.31
2023-11-30T09:08:31.532Z,99544.06
2023-11-30T09:11:35.464Z,99549.03
2023-11-30T09:14:38.410Z,99549.47
2023-11-30T09:17:41.675Z,99555.66
2023-11-30T09:20:45.268Z,99556.31
2023-11-30T09:23:47.931Z,99545.41
2023-11-30T09:26:52.787Z,99539.34
2023-11-30T09:29:57.477Z,99533.28
2023-11-30T09:33:00.505Z,99522.88
2023-11-30T09:36:03.572Z,99517.66
2023-11-30T09:39:09.324Z,99524.22
2023-11-30T09:42:17.467Z,99528.94
2023-11-30T09:45:21.424Z,99511.03
2023-11-30T09:48:24.412Z,99511.06
2023-11-30T09:51:39.734Z,99506.63
2023-11-30T09:54:43.368Z,99509.03
2023-11-30T09:57:46.164Z,99488.28
2023-11-30T10:00:49.090Z,99490.31
2023-11-30T10:03:54.373Z,99467.34
2023-11-30T10:06:57.901Z,99468.97
2023-11-30T10:10:05.011Z,99461.16
2023-11-30T10:13:09.277Z,99459.28
2023-11-30T10:16:12.205Z,99454.56
2023-11-30T10:19:15.062Z,99456.22
2023-11-30T10:22:17.796Z,99453.63
2023-11-30T10:25:22.072Z,99443.53
2023-11-30T10:28:24.944Z,99416.28
2023-11-30T10:31:30.604Z,99416.38
2023-11-30T10:34:43.993Z,99409.63
2023-11-30T10:37:51.603Z,99390.28
2023-11-30T10:41:00.952Z,99382.13
2023-11-30T10:44:06.200Z,99379.97
2023-11-30T10:47:12.518Z,99369.50
2023-11-30T10:50:16.627Z,99350.78
2023-11-30T10:53:36.811Z,99342.03
2023-11-30T10:56:40.253Z,99342.03
2023-11-30T10:59:49.348Z,99350.03
2023-11-30T11:02:53.442Z,99363.03
2023-11-30T11:05:57.430Z,99352.38
2023-11-30T11:09:02.243Z,99353.09
2023-11-30T11:12:05.366Z,99352.72
2023-11-30T11:15:15.797Z,99339.38
2023-11-30T11:18:19.718Z,99344.19
2023-11-30T11:21:26.704Z,99341.41
2023-11-30T11:24:30.766Z,99341.66
2023-11-30T11:27:34.640Z,99336.63
2023-11-30T11:30:45.549Z,99333.56
2023-11-30T11:33:49.898Z,99342.72
2023-11-30T11:36:52.609Z,99342.13
2023-11-30T11:39:56.344Z,99328.09
2023-11-30T11:43:00.649Z,99311.97
2023-11-30T11:46:03.475Z,99311.38
2023-11-30T11:49:06.308Z,99313.25
2023-11-30T11:52:10.257Z,99283.13
2023-11-30T11:55:14.914Z,99285.31
2023-11-30T11:58:17.599Z,99293.94
2023-11-30T12:01:20.314Z,99289.44
2023-11-30T12:04:27.641Z,99281.66
2023-11-30T12:07:30.330Z,99270.44
2023-11-30T12:10:40.761Z,99265.44
2023-11-30T12:13:43.690Z,99268.09
2023-11-30T12:16:46.431Z,99249.41
2023-11-30T12:19:49.102Z,99248.41
2023-11-30T12:22:52.492Z,99234.84
2023-11-30T12:25:56.648Z,99220.78
2023-11-30T12:28:59.621Z,99208.47
2023-11-30T12:32:02.454Z,99207.16
2023-11-30T12:35:06.152Z,99213.75
2023-11-30T12:38:09.500Z,99231.91
2023-11-30T12:41:12.179Z,99217.09
2023-11-30T12:44:14.973Z,99225.31
2023-11-30T12:47:17.648Z,99223.94
2023-11-30T12:50:20.832Z,99214.84
2023-11-30T12:53:23.585Z,99198.88
2023-11-30T12:56:28.860Z,99195.78
2023-11-30T12:59:31.637Z,99202.69
2023-11-30T13:02:34.375Z,99178.66
2023-11-30T13:05:37.060Z,99169.06
2023-11-30T13:08:39.720Z,99169.88
2023-11-30T13:11:43.475Z,99162.56
2023-11-30T13:14:46.102Z,99174.38
2023-11-30T13:17:49.356Z,99163.72
2023-11-30T13:20:52.110Z,99165.03
2023-11-30T13:23:54.765Z,99160.81
2023-11-30T13:26:57.417Z,99163.44
2023-11-30T13:30:01.146Z,99168.63
2023-11-30T13:33:05.719Z,99166.28
2023-11-30T13:36:09.183Z,99158.81
2023-11-30T13:39:12.135Z,99157.94
2023-11-30T13:42:14.857Z,99156.78
2023-11-30T13:45:17.731Z,99154.09
2023-11-30T13:48:20.541Z,99132.03
2023-11-30T13:51:23.639Z,99143.88
2023-11-30T13:54:26.559Z,99140.31
2023-11-30T13:57:29.400Z,99126.88
2023-11-30T14:00:35.475Z,99120.00
2023-11-30T14:03:38.916Z,99109.03
2023-11-30T14:06:42.262Z,99099.75
2023-11-30T14:09:45.320Z,99093.28
2023-11-30T14:12:48.556Z,99103.78
2023-11-30T14:15:51.357Z,99094.75
2023-11-30T14:18:54.087Z,99098.16
2023-11-30T14:21:56.831Z,99093.38
2023-11-30T14:25:00.438Z,99108.84
2023-11-30T14:28:07.821Z,99091.84
2023-11-30T14:31:19.481Z,99088.56
2023-11-30T14:34:22.372Z,99077.22
2023-11-30T14:37:25.119Z,99067.72
2023-11-30T14:40:28.189Z,99065.75
2023-11-30T14:43:31.111Z,99076.59
2023-11-30T14:46:35.216Z,99070.19
2023-11-30T14:49:39.052Z,99069.31
2023-11-30T14:52:45.475Z,99077.66
2023-11-30T14:55:49.594Z,99060.22
2023-11-30T14:58:52.757Z,99050.50
2023-11-30T15:01:55.531Z,99048.78
2023-11-30T15:04:58.323Z,99040.66
2023-11-30T15:08:00.964Z,99034.28
2023-11-30T15:11:03.823Z,99030.38
2023-11-30T15:14:06.766Z,99017.63
2023-11-30T15:17:11.201Z,99014.81
2023-11-30T15:20:14.545Z,99011.31
2023-11-30T15:23:17.446Z,99018.53
2023-11-30T15:26:20.035Z,99016.13
2023-11-30T15:29:22.747Z,99018.78
2023-11-30T15:32:25.438Z,99014.59
2023-11-30T15:35:29.776Z,99005.81
2023-11-30T15:38:34.107Z,99004.88
2023-11-30T15:41:40.847Z,99003.16
2023-11-30T15:44:43.702Z,98994.56
2023-11-30T15:47:46.608Z,98970.59
2023-11-30T15:50:49.343Z,98972.72
2023-11-30T15:53:52.836Z,98976.88
2023-11-30T15:56:58.044Z,98966.25
2023-11-30T16:00:00.724Z,98957.94
2023-11-30T16:03:05.769Z,98950.03
2023-11-30T16:06:12.058Z,98942.72
2023-11-30T16:09:14.764Z,98929.59
2023-11-30T16:12:17.468Z,98938.31
2023-11-30T16:15:20.209Z,98940.41
2023-11-30T16:18:23.415Z,98936.59
2023-11-30T16:21:28.710Z,98938.13
2023-11-30T16:24:31.992Z,98922.84
2023-11-30T16:27:34.692Z,98927.22
2023-11-30T16:30:37.403Z,98905.94
2023-11-30T16:33:43.156Z,98908.44
2023-11-30T16:36:46.804Z,98898.09
2023-11-30T16:39:49.742Z,98894.41
2023-11-30T16:42:52.510Z,98897.31
2023-11-30T16:45:55.322Z,98895.03
2023-11-30T16:48:59.224Z,98899.38
2023-11-30T16:52:02.023Z,98885.28
2023-11-30T16:55:05.395Z,98890.69
2023-11-30T16:58:08.035Z,98891.81
2023-11-30T17:01:11.340Z,98884.91
2023-11-30T17:04:14.179Z,98885.88
2023-11-30T17:07:16.822Z,98880.16
2023-11-30T17:10:19.486Z,98875.97
2023-11-30T17:13:23.613Z,98865.25
2023-11-30T17:16:26.428Z,98867.50
2023-11-30T17:19:29.157Z,98864.28
2023-11-30T17:22:31.881Z,98857.25
2023-11-30T17:25:34.474Z,98843.16
2023-11-30T17:28:37.508Z,98838.03
2023-11-30T17:31:40.223Z,98839.66
2023-11-30T17:34:43.156Z,98841.34
2023-11-30T17:37:45.947Z,98829.44
2023-11-30T17:40:48.666Z,98836.03
2023-11-30T17:43:51.391Z,98828.47
2023-11-30T17:46:54.346Z,98819.97
2023-11-30T17:49:57.199Z,98820.50
2023-11-30T17:53:02.001Z,98823.06
2023-11-30T17:56:05.100Z,98822.44
2023-11-30T17:59:07.818Z,98820.19
2023-11-30T18:02:10.826Z,98817.94
2023-11-30T18:05:13.774Z,98808.00
2023-11-30T18:08:16.444Z,98810.13
2023-11-30T18:11:19.428Z,98803.25
2023-11-30T18:14:23.553Z,98793.00
2023-11-30T18:17:26.319Z,98794.91
2023-11-30T18:20:29.101Z,98794.28
2023-11-30T18:23:31.747Z,98790.28
2023-11-30T18:26:34.443Z,98793.47
2023-11-30T18:29:37.134Z,98793.94
2023-11-30T18:32:43.169Z,98789.16
2023-11-30T18:35:46.694Z,98802.75
2023-11-30T18:38:51.574Z,98778.56
2023-11-30T18:41:56.336Z,98772.16
2023-11-30T18:44:59.135Z,98771.53
2023-11-30T18:48:01.941Z,98777.78
2023-11-30T18:51:06.822Z,98783.22
2023-11-30T18:54:09.564Z,98773.59
2023-11-30T18:57:12.241Z,98788.16
2023-11-30T19:00:15.580Z,98773.25
2023-11-30T19:03:18.285Z,98782.56
2023-11-30T19:06:22.472Z,98766.66
2023-11-30T19:09:25.229Z,98765.72
2023-11-30T19:12:27.915Z,98765.69
2023-11-30T19:15:34.030Z,98769.91
2023-11-30T19:18:36.862Z,98768.28
2023-11-30T19:21:43.644Z,98757.50
2023-11-30T19:24:46.415Z,98759.94
2023-11-30T19:27:49.254Z,98740.69
2023-11-30T19:30:51.949Z,98737.78
2023-11-30T19:33:54.667Z,98735.09
2023-11-30T19:36:57.471Z,98707.50
2023-11-30T19:40:02.279Z,98726.75
2023-11-30T19:43:05.427Z,98731.22
2023-11-30T19:46:08.163Z,98717.31
2023-11-30T19:49:10.905Z,98731.75
2023-11-30T19:52:13.815Z,98736.84
2023-11-30T19:55:16.521Z,98731.69
2023-11-30T19:58:19.158Z,98719.78
2023-11-30T20:01:25.023Z,98710.00
2023-11-30T20:04:28.521Z,98719.56
2023-11-30T20:07:31.262Z,98719.06
2023-11-30T20:10:33.923Z,98711.22
2023-11-30T20:13:36.715Z,98701.41
2023-11-30T20:16:43.104Z,98709.75
2023-11-30T20:19:45.854Z,98693.66
2023-11-30T20:22:48.491Z,98699.13
2023-11-30T20:25:51.659Z,98690.44
2023-11-30T20:28:54.314Z,98691.06
2023-11-30T20:31:56.998Z,98692.97
2023-11-30T20:34:59.673Z,98682.81
2023-11-30T20:38:02.499Z,98694.31
2023-11-30T20:41:05.535Z,98678.44
2023-11-30T20:44:08.334Z,98701.09
2023-11-30T20:47:10.982Z,98694.84
2023-11-30T20:50:13.729Z,98694.56
2023-11-30T20:53:16.388Z,98707.41
2023-11-30T20:56:19.125Z,98712.44
2023-11-30T20:59:21.763Z,98711.13
2023-11-30T21:02:24.615Z,98711.13
2023-11-30T21:05:27.503Z,98715.13
2023-11-30T21:08:33.650Z,98720.31
2023-11-30T21:11:42.421Z,98710.00
2023-11-30T21:14:46.123Z,98706.81
2023-11-30T21:17:48.819Z,98701.81
2023-11-30T21:20:51.615Z,98707.22
2023-11-30T21:23:54.398Z,98702.59
2023-11-30T21:26:57.142Z,98702.88
2023-11-30T21:30:00.037Z,98694.47
2023-11-30T21:33:02.794Z,98695.25
2023-11-30T21:36:05.983Z,98689.44
2023-11-30T21:39:10.139Z,98692.72
2023-11-30T21:42:12.838Z,98701.88
2023-11-30T21:45:15.575Z,98700.91
2023-11-30T21:48:18.344Z,98686.81
2023-11-30T21:51:21.020Z,98708.22
2023-11-30T21:54:23.667Z,98703.78
2023-11-30T21:57:26.637Z,98714.47
2023-11-30T22:00:29.400Z,98718.56
2023-11-30T22:03:32.315Z,98716.19
2023-11-30T22:06:35.171Z,98720.19
2023-11-30T22:09:39.150Z,98729.53
2023-11-30T22:12:42.502Z,98725.19
2023-11-30T22:15:45.234Z,98710.34
2023-11-30T22:18:47.964Z,98711.06
2023-11-30T22:21:50.649Z,98716.00
2023-11-30T22:24:53.372Z,98718.66
2023-11-30T22:27:56.243Z,98723.22
2023-11-30T22:30:59.807Z,98718.75
2023-11-30T22:34:02.660Z,98716.81
2023-11-30T22:37:05.475Z,98722.22
2023-11-30T22:40:09.128Z,98725.59
2023-11-30T22:43:11.830Z,98719.91
2023-11-30T22:46:19.105Z,98692.22
2023-11-30T22:49:22.188Z,98710.31
2023-11-30T22:52:26.765Z,98709.06
2023-11-30T22:55:29.647Z,98721.94
2023-11-30T22:58:32.386Z,98727.56
2023-11-30T23:01:35.563Z,98723.50
2023-11-30T23:04:39.636Z,98726.69
2023-11-30T23:07:44.260Z,98731.44
2023-11-30T23:10:46.899Z,98728.34
2023-11-30T23:13:49.524Z,98731.56
2023-11-30T23:16:52.210Z,98743.81
2023-11-30T23:19:54.866Z,98732.63
2023-11-30T23:22:57.519Z,98725.88
2023-11-30T23:26:01.054Z,98724.72
2023-11-30T23:29:04.352Z,98719.19
2023-11-30T23:32:07.840Z,98715.91
2023-11-30T23:35:10.455Z,98707.84
2023-11-30T23:38:13.136Z,98724.00
2023-11-30T23:41:15.885Z,98723.00
2023-11-30T23:44:18.574Z,98724.00
2023-11-30T23:47:21.226Z,98729.84
2023-11-30T23:50:23.906Z,98735.81
2023-11-30T23:53:26.560Z,98720.88
2023-11-30T23:56:29.189Z,98741.31
2023-11-30T23:59:31.926Z,98734.94
